KRNC

Warren County Memorial Airport

Mc Minnville, Tennessee, USA
METAR KRNC 181255Z AUTO 00000KT 10SM CLR M03/M04 A3019 RMK A01
Observed Flight Rules
Dec-18 @ 12:55 UTC (19 minutes ago) Visual Flight Rules
Visibility Clouds
10 miles
  • Clear skies
Temperatures Readings
Current -3°C / 27°F
Dewpoint -4°C / 25°F
Humidity 93%
Altimeter 30.19" Hg
Pressure 1022 hPa
Elevation 315
METAR KRNC 181255Z AUTO 00000KT 10SM CLR M03/M04 A3019 RMK A01
Observed Flight Rules
Dec-18 @ 12:55 UTC
(19 minutes ago)
VFR
Clouds
  • Clear skies
Temperature Dewpoint
-3°C / 27°F -4°C / 25°F
Humidity Altimeter Pressure
93% 30.19" Hg 1022 hPa